sensor_id;sensor_type;location;lat;lon;timestamp;pressure;altitude;pressure_sealevel;temperature;humidity
51297;BME280;37380;45.186;9.792;2023-01-30T00:01:24;101558.81;;;-3.37;100.00
51297;BME280;37380;45.186;9.792;2023-01-30T00:03:52;101508.88;;;-3.67;100.00
51297;BME280;37380;45.186;9.792;2023-01-30T00:06:23;101875.25;;;-1.45;100.00
51297;BME280;37380;45.186;9.792;2023-01-30T00:08:57;101622.22;;;-3.17;100.00
51297;BME280;37380;45.186;9.792;2023-01-30T00:11:33;101792.28;;;-2.14;100.00
51297;BME280;37380;45.186;9.792;2023-01-30T00:14:34;101835.22;;;-1.69;100.00
51297;BME280;37380;45.186;9.792;2023-01-30T00:17:05;101790.56;;;-1.97;100.00
51297;BME280;37380;45.186;9.792;2023-01-30T00:19:32;101637.97;;;-2.97;100.00
51297;BME280;37380;45.186;9.792;2023-01-30T00:22:05;101868.97;;;-1.73;100.00
51297;BME280;37380;45.186;9.792;2023-01-30T00:25:01;101536.19;;;-3.50;100.00
51297;BME280;37380;45.186;9.792;2023-01-30T00:27:36;101476.75;;;-3.65;100.00
51297;BME280;37380;45.186;9.792;2023-01-30T00:30:07;101521.53;;;-3.35;100.00
51297;BME280;37380;45.186;9.792;2023-01-30T00:32:41;101613.94;;;-3.14;100.00
51297;BME280;37380;45.186;9.792;2023-01-30T00:35:12;101846.41;;;-1.60;100.00
51297;BME280;37380;45.186;9.792;2023-01-30T00:37:42;101522.28;;;-3.69;100.00
51297;BME280;37380;45.186;9.792;2023-01-30T00:40:17;101855.50;;;-1.46;100.00
51297;BME280;37380;45.186;9.792;2023-01-30T00:42:54;101611.19;;;-2.91;100.00
51297;BME280;37380;45.186;9.792;2023-01-30T00:46:28;101840.47;;;-1.85;100.00
51297;BME280;37380;45.186;9.792;2023-01-30T00:49:45;101513.22;;;-3.74;100.00
51297;BME280;37380;45.186;9.792;2023-01-30T00:52:18;101792.41;;;-2.21;100.00
51297;BME280;37380;45.186;9.792;2023-01-30T00:54:54;101468.13;;;-4.07;100.00
51297;BME280;37380;45.186;9.792;2023-01-30T00:57:50;101853.28;;;-1.85;100.00
51297;BME280;37380;45.186;9.792;2023-01-30T01:00:28;101870.38;;;-1.68;100.00
51297;BME280;37380;45.186;9.792;2023-01-30T01:03:25;101871.06;;;-1.78;100.00
51297;BME280;37380;45.186;9.792;2023-01-30T01:05:52;101868.19;;;-1.81;100.00
51297;BME280;37380;45.186;9.792;2023-01-30T01:08:20;101845.38;;;-1.95;100.00
51297;BME280;37380;45.186;9.792;2023-01-30T01:10:48;101859.16;;;-1.86;100.00
51297;BME280;37380;45.186;9.792;2023-01-30T01:13:22;101817.53;;;-1.84;100.00
51297;BME280;37380;45.186;9.792;2023-01-30T01:16:34;101638.19;;;-3.11;100.00
51297;BME280;37380;45.186;9.792;2023-01-30T01:19:03;101695.97;;;-2.71;100.00
51297;BME280;37380;45.186;9.792;2023-01-30T01:21:41;101482.63;;;-4.15;100.00
51297;BME280;37380;45.186;9.792;2023-01-30T01:24:17;101830.59;;;-1.98;100.00
51297;BME280;37380;45.186;9.792;2023-01-30T01:27:23;101497.94;;;-4.15;100.00
51297;BME280;37380;45.186;9.792;2023-01-30T01:29:55;101491.28;;;-4.21;100.00
51297;BME280;37380;45.186;9.792;2023-01-30T01:32:28;101497.28;;;-3.80;100.00
51297;BME280;37380;45.186;9.792;2023-01-30T01:35:01;101454.38;;;-4.16;100.00
51297;BME280;37380;45.186;9.792;2023-01-30T01:37:32;101461.94;;;-4.09;100.00
51297;BME280;37380;45.186;9.792;2023-01-30T01:40:01;101682.56;;;-2.77;100.00
51297;BME280;37380;45.186;9.792;2023-01-30T01:42:53;101809.28;;;-2.23;100.00
51297;BME280;37380;45.186;9.792;2023-01-30T01:45:51;101820.94;;;-2.09;100.00
51297;BME280;37380;45.186;9.792;2023-01-30T01:48:28;101793.09;;;-2.31;100.00
51297;BME280;37380;45.186;9.792;2023-01-30T01:51:01;101623.25;;;-3.15;100.00
51297;BME280;37380;45.186;9.792;2023-01-30T01:53:44;101663.41;;;-2.89;100.00
51297;BME280;37380;45.186;9.792;2023-01-30T01:56:48;101821.56;;;-2.03;100.00
51297;BME280;37380;45.186;9.792;2023-01-30T01:59:48;101779.59;;;-2.30;100.00
51297;BME280;37380;45.186;9.792;2023-01-30T02:02:28;101484.34;;;-4.22;100.00
51297;BME280;37380;45.186;9.792;2023-01-30T02:05:06;101775.59;;;-2.01;100.00
51297;BME280;37380;45.186;9.792;2023-01-30T02:07:45;101492.78;;;-3.99;100.00
51297;BME280;37380;45.186;9.792;2023-01-30T02:10:22;101582.91;;;-3.26;100.00
51297;BME280;37380;45.186;9.792;2023-01-30T02:13:09;101572.72;;;-3.51;100.00
51297;BME280;37380;45.186;9.792;2023-01-30T02:16:07;101799.47;;;-2.18;100.00
51297;BME280;37380;45.186;9.792;2023-01-30T02:18:42;101425.66;;;-4.47;100.00
51297;BME280;37380;45.186;9.792;2023-01-30T02:47:12;101739.28;;;-2.48;100.00
51297;BME280;37380;45.186;9.792;2023-01-30T02:49:48;101780.06;;;-2.16;100.00
51297;BME280;37380;45.186;9.792;2023-01-30T02:52:25;101417.03;;;-4.56;100.00
51297;BME280;37380;45.186;9.792;2023-01-30T02:55:18;101422.69;;;-4.43;100.00
51297;BME280;37380;45.186;9.792;2023-01-30T02:57:49;101487.59;;;-4.32;100.00
51297;BME280;37380;45.186;9.792;2023-01-30T03:07:03;101747.75;;;-2.40;100.00
51297;BME280;37380;45.186;9.792;2023-01-30T03:15:59;101736.41;;;-2.51;100.00
51297;BME280;37380;45.186;9.792;2023-01-30T03:18:28;101731.91;;;-2.12;100.00
51297;BME280;37380;45.186;9.792;2023-01-30T03:20:55;101736.53;;;-2.25;100.00
51297;BME280;37380;45.186;9.792;2023-01-30T03:23:26;101739.63;;;-2.36;100.00
51297;BME280;37380;45.186;9.792;2023-01-30T03:25:55;101388.53;;;-4.36;100.00
51297;BME280;37380;45.186;9.792;2023-01-30T03:28:23;101425.34;;;-4.25;100.00
51297;BME280;37380;45.186;9.792;2023-01-30T03:30:57;101348.78;;;-4.59;100.00
51297;BME280;37380;45.186;9.792;2023-01-30T03:33:27;101703.97;;;-2.35;100.00
51297;BME280;37380;45.186;9.792;2023-01-30T03:35:55;101353.97;;;-4.41;100.00
51297;BME280;37380;45.186;9.792;2023-01-30T03:38:23;101735.19;;;-2.13;100.00
51297;BME280;37380;45.186;9.792;2023-01-30T03:40:50;101367.63;;;-4.16;100.00
51297;BME280;37380;45.186;9.792;2023-01-30T03:43:24;101613.19;;;-2.80;100.00
51297;BME280;37380;45.186;9.792;2023-01-30T03:46:28;101704.66;;;-2.11;100.00
51297;BME280;37380;45.186;9.792;2023-01-30T03:49:22;101697.34;;;-2.41;100.00
51297;BME280;37380;45.186;9.792;2023-01-30T03:51:50;101644.78;;;-2.80;100.00
51297;BME280;37380;45.186;9.792;2023-01-30T03:54:18;101502.34;;;-3.56;100.00
51297;BME280;37380;45.186;9.792;2023-01-30T03:56:46;101638.94;;;-2.79;100.00
51297;BME280;37380;45.186;9.792;2023-01-30T03:59:13;101533.47;;;-3.18;100.00
51297;BME280;37380;45.186;9.792;2023-01-30T04:01:55;101468.34;;;-3.72;100.00
51297;BME280;37380;45.186;9.792;2023-01-30T04:04:57;101626.78;;;-2.72;100.00
51297;BME280;37380;45.186;9.792;2023-01-30T04:07:57;101579.13;;;-3.05;100.00
51297;BME280;37380;45.186;9.792;2023-01-30T04:10:25;101684.97;;;-2.45;100.00
51297;BME280;37380;45.186;9.792;2023-01-30T04:12:59;101515.38;;;-3.61;100.00
51297;BME280;37380;45.186;9.792;2023-01-30T04:16:23;101672.00;;;-2.56;100.00
51297;BME280;37380;45.186;9.792;2023-01-30T04:19:22;101329.91;;;-4.52;100.00
51297;BME280;37380;45.186;9.792;2023-01-30T04:21:49;101681.16;;;-2.58;100.00
51297;BME280;37380;45.186;9.792;2023-01-30T04:24:17;101504.09;;;-3.39;100.00
51297;BME280;37380;45.186;9.792;2023-01-30T04:26:44;101643.63;;;-2.66;100.00
51297;BME280;37380;45.186;9.792;2023-01-30T04:29:12;101412.25;;;-3.79;100.00
51297;BME280;37380;45.186;9.792;2023-01-30T04:31:40;101596.59;;;-2.92;100.00
51297;BME280;37380;45.186;9.792;2023-01-30T04:34:17;101359.84;;;-4.34;100.00
51297;BME280;37380;45.186;9.792;2023-01-30T04:36:45;101479.44;;;-3.38;100.00
51297;BME280;37380;45.186;9.792;2023-01-30T04:39:12;101644.53;;;-2.65;100.00
51297;BME280;37380;45.186;9.792;2023-01-30T04:41:40;101604.91;;;-2.86;100.00
51297;BME280;37380;45.186;9.792;2023-01-30T04:44:15;101522.47;;;-3.34;100.00
51297;BME280;37380;45.186;9.792;2023-01-30T04:47:29;101515.53;;;-3.35;100.00
51297;BME280;37380;45.186;9.792;2023-01-30T04:50:24;101583.38;;;-2.88;100.00
51297;BME280;37380;45.186;9.792;2023-01-30T04:52:51;101439.22;;;-3.66;100.00
51297;BME280;37380;45.186;9.792;2023-01-30T04:55:24;101380.59;;;-4.06;100.00
51297;BME280;37380;45.186;9.792;2023-01-30T04:58:25;101442.88;;;-3.79;100.00
51297;BME280;37380;45.186;9.792;2023-01-30T05:01:35;101472.88;;;-3.61;100.00
51297;BME280;37380;45.186;9.792;2023-01-30T05:04:04;101351.00;;;-4.37;100.00
51297;BME280;37380;45.186;9.792;2023-01-30T05:06:33;101571.47;;;-2.97;100.00
51297;BME280;37380;45.186;9.792;2023-01-30T05:09:03;101530.63;;;-3.21;100.00
51297;BME280;37380;45.186;9.792;2023-01-30T05:11:37;101586.78;;;-3.05;100.00
51297;BME280;37380;45.186;9.792;2023-01-30T05:14:38;101479.03;;;-3.59;100.00
51297;BME280;37380;45.186;9.792;2023-01-30T05:17:40;101563.13;;;-3.11;100.00
51297;BME280;37380;45.186;9.792;2023-01-30T05:20:22;101572.47;;;-3.03;100.00
51297;BME280;37380;45.186;9.792;2023-01-30T05:22:50;101647.91;;;-2.58;100.00
51297;BME280;37380;45.186;9.792;2023-01-30T05:25:18;101222.19;;;-5.07;100.00
51297;BME280;37380;45.186;9.792;2023-01-30T05:27:52;101414.31;;;-3.93;100.00
51297;BME280;37380;45.186;9.792;2023-01-30T05:30:47;101626.19;;;-2.70;100.00
51297;BME280;37380;45.186;9.792;2023-01-30T05:33:14;101295.31;;;-4.66;100.00
51297;BME280;37380;45.186;9.792;2023-01-30T05:35:48;101467.03;;;-3.60;100.00
51297;BME280;37380;45.186;9.792;2023-01-30T05:38:16;101537.28;;;-3.06;100.00
51297;BME280;37380;45.186;9.792;2023-01-30T05:40:43;101486.56;;;-3.60;100.00
51297;BME280;37380;45.186;9.792;2023-01-30T05:43:16;101689.00;;;-2.47;100.00
51297;BME280;37380;45.186;9.792;2023-01-30T05:46:11;101534.56;;;-3.16;100.00
51297;BME280;37380;45.186;9.792;2023-01-30T05:48:39;101419.16;;;-3.78;100.00
51297;BME280;37380;45.186;9.792;2023-01-30T05:51:15;101455.69;;;-3.71;100.00
51297;BME280;37380;45.186;9.792;2023-01-30T05:53:42;101485.84;;;-3.51;100.00
51297;BME280;37380;45.186;9.792;2023-01-30T05:56:09;101699.22;;;-2.14;100.00
51297;BME280;37380;45.186;9.792;2023-01-30T05:58:37;101688.97;;;-2.14;100.00
51297;BME280;37380;45.186;9.792;2023-01-30T06:01:37;101574.06;;;-2.88;100.00
51297;BME280;37380;45.186;9.792;2023-01-30T06:04:42;101712.13;;;-2.21;100.00
51297;BME280;37380;45.186;9.792;2023-01-30T06:07:38;101550.81;;;-3.07;100.00
51297;BME280;37380;45.186;9.792;2023-01-30T06:10:05;101444.47;;;-3.64;100.00
51297;BME280;37380;45.186;9.792;2023-01-30T06:12:58;101456.44;;;-3.38;100.00
51297;BME280;37380;45.186;9.792;2023-01-30T06:15:55;101451.94;;;-3.74;100.00
51297;BME280;37380;45.186;9.792;2023-01-30T06:18:26;101426.81;;;-3.78;100.00
51297;BME280;37380;45.186;9.792;2023-01-30T06:20:57;101428.88;;;-3.92;100.00
51297;BME280;37380;45.186;9.792;2023-01-30T06:23:30;101435.31;;;-3.62;100.00
51297;BME280;37380;45.186;9.792;2023-01-30T06:26:08;101441.50;;;-3.84;100.00
51297;BME280;37380;45.186;9.792;2023-01-30T06:28:39;101316.69;;;-4.57;100.00
51297;BME280;37380;45.186;9.792;2023-01-30T06:31:07;101680.91;;;-2.43;100.00
51297;BME280;37380;45.186;9.792;2023-01-30T06:33:34;101700.72;;;-2.58;100.00
51297;BME280;37380;45.186;9.792;2023-01-30T06:36:03;101389.63;;;-4.25;100.00
51297;BME280;37380;45.186;9.792;2023-01-30T06:38:30;101584.09;;;-3.31;100.00
51297;BME280;37380;45.186;9.792;2023-01-30T06:41:04;101521.44;;;-3.28;100.00
51297;BME280;37380;45.186;9.792;2023-01-30T06:43:43;101545.91;;;-3.30;100.00
51297;BME280;37380;45.186;9.792;2023-01-30T06:46:40;101446.41;;;-3.95;100.00
51297;BME280;37380;45.186;9.792;2023-01-30T06:49:37;101264.59;;;-5.08;100.00
51297;BME280;37380;45.186;9.792;2023-01-30T06:52:45;101432.69;;;-3.79;100.00
51297;BME280;37380;45.186;9.792;2023-01-30T06:55:47;101667.19;;;-2.53;100.00
51297;BME280;37380;45.186;9.792;2023-01-30T06:58:42;101665.97;;;-2.47;100.00
51297;BME280;37380;45.186;9.792;2023-01-30T07:01:13;101669.19;;;-2.41;100.00
51297;BME280;37380;45.186;9.792;2023-01-30T07:03:48;101550.00;;;-2.90;100.00
51297;BME280;37380;45.186;9.792;2023-01-30T07:06:43;101398.50;;;-3.64;100.00
51297;BME280;37380;45.186;9.792;2023-01-30T07:09:22;101323.66;;;-3.80;100.00
51297;BME280;37380;45.186;9.792;2023-01-30T07:12:04;101324.38;;;-3.81;100.00
51297;BME280;37380;45.186;9.792;2023-01-30T07:15:37;101675.03;;;-1.66;100.00
51297;BME280;37380;45.186;9.792;2023-01-30T07:18:35;101564.41;;;-2.31;100.00
51297;BME280;37380;45.186;9.792;2023-01-30T07:21:08;101598.91;;;-1.84;100.00
51297;BME280;37380;45.186;9.792;2023-01-30T07:23:38;101449.22;;;-2.40;100.00
51297;BME280;37380;45.186;9.792;2023-01-30T07:26:06;101623.84;;;-1.21;100.00
51297;BME280;37380;45.186;9.792;2023-01-30T07:28:33;101492.97;;;-1.76;100.00
51297;BME280;37380;45.186;9.792;2023-01-30T07:31:01;101438.66;;;-2.08;100.00
51297;BME280;37380;45.186;9.792;2023-01-30T07:33:29;101520.56;;;-1.28;100.00
51297;BME280;37380;45.186;9.792;2023-01-30T07:36:04;101510.25;;;-1.20;100.00
51297;BME280;37380;45.186;9.792;2023-01-30T07:38:59;101643.81;;;-0.46;100.00
51297;BME280;37380;45.186;9.792;2023-01-30T07:41:27;101482.19;;;-1.09;100.00
51297;BME280;37380;45.186;9.792;2023-01-30T07:44:01;101679.22;;;-0.33;100.00
51297;BME280;37380;45.186;9.792;2023-01-30T07:46:55;101563.22;;;-0.56;100.00
51297;BME280;37380;45.186;9.792;2023-01-30T07:49:22;101677.72;;;-0.31;100.00
51297;BME280;37380;45.186;9.792;2023-01-30T07:51:49;101581.34;;;-0.55;100.00
51297;BME280;37380;45.186;9.792;2023-01-30T07:54:17;101507.31;;;-0.69;100.00
51297;BME280;37380;45.186;9.792;2023-01-30T07:56:44;101516.00;;;-0.39;100.00
51297;BME280;37380;45.186;9.792;2023-01-30T07:59:11;101645.56;;;0.78;100.00
51297;BME280;37380;45.186;9.792;2023-01-30T08:01:39;101626.03;;;0.80;100.00
51297;BME280;37380;45.186;9.792;2023-01-30T08:04:12;101391.16;;;-0.48;100.00
51297;BME280;37380;45.186;9.792;2023-01-30T08:07:13;101598.19;;;0.36;100.00
51297;BME280;37380;45.186;9.792;2023-01-30T08:10:15;101498.31;;;-0.55;100.00
51297;BME280;37380;45.186;9.792;2023-01-30T08:13:16;101306.38;;;-1.99;100.00
51297;BME280;37380;45.186;9.792;2023-01-30T08:16:10;101456.59;;;-0.72;100.00
51297;BME280;37380;45.186;9.792;2023-01-30T08:18:37;101472.06;;;-0.24;100.00
51297;BME280;37380;45.186;9.792;2023-01-30T08:21:05;101560.66;;;0.67;100.00
51297;BME280;37380;45.186;9.792;2023-01-30T08:23:33;101440.69;;;-0.11;100.00
51297;BME280;37380;45.186;9.792;2023-01-30T08:26:02;101587.94;;;1.15;100.00
51297;BME280;37380;45.186;9.792;2023-01-30T08:28:31;101407.19;;;-0.02;100.00
51297;BME280;37380;45.186;9.792;2023-01-30T08:30:59;101402.91;;;-0.12;100.00
51297;BME280;37380;45.186;9.792;2023-01-30T08:33:27;101381.56;;;-0.69;100.00
51297;BME280;37380;45.186;9.792;2023-01-30T08:35:55;101404.13;;;-1.22;100.00
51297;BME280;37380;45.186;9.792;2023-01-30T08:38:29;101521.09;;;-0.77;100.00
51297;BME280;37380;45.186;9.792;2023-01-30T08:41:24;101310.31;;;-2.02;100.00
51297;BME280;37380;45.186;9.792;2023-01-30T08:43:59;101633.16;;;-0.31;100.00
51297;BME280;37380;45.186;9.792;2023-01-30T08:46:54;101440.31;;;-1.55;100.00
51297;BME280;37380;45.186;9.792;2023-01-30T08:49:21;101233.81;;;-2.44;100.00
51297;BME280;37380;45.186;9.792;2023-01-30T08:51:54;101604.25;;;-0.20;100.00
51297;BME280;37380;45.186;9.792;2023-01-30T08:54:49;101390.31;;;-1.14;100.00
51297;BME280;37380;45.186;9.792;2023-01-30T08:57:16;101380.22;;;-1.12;100.00
51297;BME280;37380;45.186;9.792;2023-01-30T08:59:43;101370.81;;;-0.84;100.00
51297;BME280;37380;45.186;9.792;2023-01-30T09:02:11;101539.38;;;0.20;100.00
51297;BME280;37380;45.186;9.792;2023-01-30T09:04:38;101568.97;;;0.55;100.00
51297;BME280;37380;45.186;9.792;2023-01-30T09:07:12;101453.91;;;0.23;100.00
51297;BME280;37380;45.186;9.792;2023-01-30T09:10:13;101604.63;;;1.70;100.00
51297;BME280;37380;45.186;9.792;2023-01-30T09:13:15;101377.13;;;1.18;100.00
51297;BME280;37380;45.186;9.792;2023-01-30T09:16:16;101503.28;;;1.28;100.00
51297;BME280;37380;45.186;9.792;2023-01-30T09:18:53;101550.78;;;1.32;100.00
51297;BME280;37380;45.186;9.792;2023-01-30T09:21:21;101197.94;;;-0.16;100.00
51297;BME280;37380;45.186;9.792;2023-01-30T09:23:48;101528.88;;;1.68;100.00
51297;BME280;37380;45.186;9.792;2023-01-30T09:26:20;101625.53;;;2.56;100.00
51297;BME280;37380;45.186;9.792;2023-01-30T09:28:48;101243.06;;;0.62;100.00
51297;BME280;37380;45.186;9.792;2023-01-30T09:31:25;101391.59;;;2.23;100.00
51297;BME280;37380;45.186;9.792;2023-01-30T09:34:25;101602.28;;;3.54;100.00
51297;BME280;37380;45.186;9.792;2023-01-30T09:37:13;101360.88;;;1.82;100.00
51297;BME280;37380;45.186;9.792;2023-01-30T09:39:42;101624.91;;;2.48;100.00
51297;BME280;37380;45.186;9.792;2023-01-30T09:46:41;101591.19;;;2.25;100.00
51297;BME280;37380;45.186;9.792;2023-01-30T09:53:35;101606.72;;;2.47;100.00
51297;BME280;37380;45.186;9.792;2023-01-30T09:56:00;101457.94;;;1.10;100.00
51297;BME280;37380;45.186;9.792;2023-01-30T09:58:54;101603.56;;;2.61;100.00
51297;BME280;37380;45.186;9.792;2023-01-30T10:04:44;101573.59;;;3.06;100.00
51297;BME280;37380;45.186;9.792;2023-01-30T10:08:03;101567.63;;;3.29;100.00
51297;BME280;37380;45.186;9.792;2023-01-30T10:18:10;101552.88;;;3.28;100.00
51297;BME280;37380;45.186;9.792;2023-01-30T10:21:01;101548.41;;;3.59;100.00
51297;BME280;37380;45.186;9.792;2023-01-30T10:23:56;101296.91;;;1.98;100.00
51297;BME280;37380;45.186;9.792;2023-01-30T10:26:57;101517.38;;;3.47;100.00
51297;BME280;37380;45.186;9.792;2023-01-30T10:29:32;101388.00;;;2.99;100.00
51297;BME280;37380;45.186;9.792;2023-01-30T10:32:18;101170.84;;;2.01;100.00
51297;BME280;37380;45.186;9.792;2023-01-30T10:34:52;101487.06;;;4.39;100.00
51297;BME280;37380;45.186;9.792;2023-01-30T10:40:32;101435.00;;;4.34;100.00
51297;BME280;37380;45.186;9.792;2023-01-30T10:43:13;101482.63;;;4.98;100.00
51297;BME280;37380;45.186;9.792;2023-01-30T10:46:23;101248.16;;;3.76;100.00
51297;BME280;37380;45.186;9.792;2023-01-30T10:54:21;101284.19;;;3.50;100.00
51297;BME280;37380;45.186;9.792;2023-01-30T11:00:04;101439.59;;;5.00;100.00
51297;BME280;37380;45.186;9.792;2023-01-30T11:03:14;101091.78;;;3.08;100.00
51297;BME280;37380;45.186;9.792;2023-01-30T11:05:56;101447.22;;;5.10;100.00
51297;BME280;37380;45.186;9.792;2023-01-30T11:09:02;101427.16;;;5.08;100.00
51297;BME280;37380;45.186;9.792;2023-01-30T11:11:49;101262.66;;;4.74;100.00
51297;BME280;37380;45.186;9.792;2023-01-30T11:14:57;101390.47;;;5.40;100.00
51297;BME280;37380;45.186;9.792;2023-01-30T11:18:03;101047.41;;;3.50;100.00
51297;BME280;37380;45.186;9.792;2023-01-30T11:21:18;101225.38;;;4.59;100.00
51297;BME280;37380;45.186;9.792;2023-01-30T11:24:02;101393.09;;;5.53;100.00
51297;BME280;37380;45.186;9.792;2023-01-30T11:26:33;101366.56;;;5.44;100.00
51297;BME280;37380;45.186;9.792;2023-01-30T11:29:27;101354.00;;;5.50;100.00
51297;BME280;37380;45.186;9.792;2023-01-30T11:32:25;101293.56;;;5.38;100.00
51297;BME280;37380;45.186;9.792;2023-01-30T11:35:27;101192.94;;;4.64;100.00
51297;BME280;37380;45.186;9.792;2023-01-30T11:41:03;100999.97;;;2.75;100.00
51297;BME280;37380;45.186;9.792;2023-01-30T11:44:09;101348.78;;;4.47;100.00
51297;BME280;37380;45.186;9.792;2023-01-30T11:47:07;101229.63;;;3.82;100.00
51297;BME280;37380;45.186;9.792;2023-01-30T11:49:40;101269.84;;;4.79;100.00
51297;BME280;37380;45.186;9.792;2023-01-30T11:52:31;101298.38;;;5.32;100.00
51297;BME280;37380;45.186;9.792;2023-01-30T11:55:02;100986.69;;;3.57;100.00
51297;BME280;37380;45.186;9.792;2023-01-30T11:57:45;101195.56;;;4.91;100.00
51297;BME280;37380;45.186;9.792;2023-01-30T12:00:18;101300.16;;;5.59;100.00
51297;BME280;37380;45.186;9.792;2023-01-30T12:02:48;101018.56;;;4.36;100.00
51297;BME280;37380;45.186;9.792;2023-01-30T12:05:29;101046.16;;;3.70;100.00
51297;BME280;37380;45.186;9.792;2023-01-30T12:11:01;101164.13;;;4.33;100.00
51297;BME280;37380;45.186;9.792;2023-01-30T12:13:40;101131.25;;;4.84;100.00
51297;BME280;37380;45.186;9.792;2023-01-30T12:37:02;101250.75;;;5.16;100.00
51297;BME280;37380;45.186;9.792;2023-01-30T12:55:38;100836.19;;;4.14;100.00
51297;BME280;37380;45.186;9.792;2023-01-30T13:08:02;101068.94;;;5.37;100.00
51297;BME280;37380;45.186;9.792;2023-01-30T13:11:19;101006.88;;;5.10;100.00
51297;BME280;37380;45.186;9.792;2023-01-30T13:14:35;100908.78;;;4.04;100.00
51297;BME280;37380;45.186;9.792;2023-01-30T13:23:03;100832.38;;;3.68;100.00
51297;BME280;37380;45.186;9.792;2023-01-30T13:26:13;100923.06;;;4.39;100.00
51297;BME280;37380;45.186;9.792;2023-01-30T13:28:50;100902.59;;;4.28;100.00
51297;BME280;37380;45.186;9.792;2023-01-30T13:31:31;100800.63;;;3.83;100.00
51297;BME280;37380;45.186;9.792;2023-01-30T13:34:40;100796.06;;;3.93;100.00
51297;BME280;37380;45.186;9.792;2023-01-30T13:37:37;101116.41;;;5.79;100.00
51297;BME280;37380;45.186;9.792;2023-01-30T13:40:29;101018.28;;;4.99;100.00
51297;BME280;37380;45.186;9.792;2023-01-30T13:43:47;100929.41;;;4.57;100.00
51297;BME280;37380;45.186;9.792;2023-01-30T13:46:51;100959.19;;;5.07;100.00
51297;BME280;37380;45.186;9.792;2023-01-30T13:50:18;100980.78;;;5.07;100.00
51297;BME280;37380;45.186;9.792;2023-01-30T13:52:58;101062.69;;;5.61;100.00
51297;BME280;37380;45.186;9.792;2023-01-30T13:55:41;101085.63;;;5.98;100.00
51297;BME280;37380;45.186;9.792;2023-01-30T14:01:01;100981.56;;;5.34;100.00
51297;BME280;37380;45.186;9.792;2023-01-30T14:03:30;100923.47;;;5.01;100.00
51297;BME280;37380;45.186;9.792;2023-01-30T14:06:03;100996.06;;;5.60;100.00
51297;BME280;37380;45.186;9.792;2023-01-30T14:09:24;100785.13;;;4.25;100.00
51297;BME280;37380;45.186;9.792;2023-01-30T14:12:03;101050.53;;;5.90;100.00
51297;BME280;37380;45.186;9.792;2023-01-30T14:20:47;101044.72;;;5.64;100.00
51297;BME280;37380;45.186;9.792;2023-01-30T14:23:27;101071.19;;;5.74;100.00
51297;BME280;37380;45.186;9.792;2023-01-30T14:26:00;101084.50;;;5.80;100.00
51297;BME280;37380;45.186;9.792;2023-01-30T14:28:43;100725.75;;;3.70;100.00
51297;BME280;37380;45.186;9.792;2023-01-30T14:31:45;100737.16;;;3.74;100.00
51297;BME280;37380;45.186;9.792;2023-01-30T14:34:46;100704.28;;;3.99;100.00
51297;BME280;37380;45.186;9.792;2023-01-30T14:43:48;100716.13;;;3.96;100.00
51297;BME280;37380;45.186;9.792;2023-01-30T14:46:58;100745.41;;;4.24;100.00
51297;BME280;37380;45.186;9.792;2023-01-30T14:50:25;100813.50;;;4.66;100.00
51297;BME280;37380;45.186;9.792;2023-01-30T14:53:01;100724.91;;;4.27;100.00
51297;BME280;37380;45.186;9.792;2023-01-30T14:55:38;101030.91;;;6.08;100.00
51297;BME280;37380;45.186;9.792;2023-01-30T14:58:18;100693.28;;;3.89;100.00
51297;BME280;37380;45.186;9.792;2023-01-30T15:10:16;101023.06;;;5.79;100.00
51297;BME280;37380;45.186;9.792;2023-01-30T15:22:34;101020.41;;;5.77;100.00
51297;BME280;37380;45.186;9.792;2023-01-30T15:25:28;101016.38;;;5.67;100.00
51297;BME280;37380;45.186;9.792;2023-01-30T15:32:18;100936.13;;;5.11;100.00
51297;BME280;37380;45.186;9.792;2023-01-30T15:38:31;100997.16;;;5.06;100.00
51297;BME280;37380;45.186;9.792;2023-01-30T15:41:10;100786.94;;;3.84;100.00
51297;BME280;37380;45.186;9.792;2023-01-30T15:44:00;101017.25;;;5.10;100.00
51297;BME280;37380;45.186;9.792;2023-01-30T15:50:02;100973.47;;;4.59;100.00
51297;BME280;37380;45.186;9.792;2023-01-30T15:52:44;101019.03;;;4.70;100.00
51297;BME280;37380;45.186;9.792;2023-01-30T15:55:41;100967.44;;;4.18;100.00
51297;BME280;37380;45.186;9.792;2023-01-30T15:58:51;100883.66;;;3.61;100.00
51297;BME280;37380;45.186;9.792;2023-01-30T16:01:42;100790.34;;;3.04;100.00
51297;BME280;37380;45.186;9.792;2023-01-30T16:04:25;100995.13;;;4.06;100.00
51297;BME280;37380;45.186;9.792;2023-01-30T16:07:22;100923.41;;;3.63;100.00
51297;BME280;37380;45.186;9.792;2023-01-30T16:10:29;101008.94;;;4.06;100.00
51297;BME280;37380;45.186;9.792;2023-01-30T16:13:08;100929.25;;;3.48;100.00
51297;BME280;37380;45.186;9.792;2023-01-30T16:16:15;100905.72;;;3.05;100.00
51297;BME280;37380;45.186;9.792;2023-01-30T16:18:54;101007.78;;;3.63;100.00
51297;BME280;37380;45.186;9.792;2023-01-30T16:22:17;101042.81;;;3.84;100.00
51297;BME280;37380;45.186;9.792;2023-01-30T16:24:54;100983.91;;;3.40;100.00
51297;BME280;37380;45.186;9.792;2023-01-30T16:27:33;100930.56;;;3.16;100.00
51297;BME280;37380;45.186;9.792;2023-01-30T16:30:09;101033.69;;;3.51;100.00
51297;BME280;37380;45.186;9.792;2023-01-30T16:32:37;100919.84;;;2.60;100.00
51297;BME280;37380;45.186;9.792;2023-01-30T16:38:33;100995.28;;;3.06;100.00
51297;BME280;37380;45.186;9.792;2023-01-30T16:41:33;101025.84;;;2.88;100.00
51297;BME280;37380;45.186;9.792;2023-01-30T16:44:20;100991.13;;;2.71;100.00
51297;BME280;37380;45.186;9.792;2023-01-30T16:47:28;101055.94;;;2.87;100.00
51297;BME280;37380;45.186;9.792;2023-01-30T16:50:35;100782.06;;;1.22;100.00
51297;BME280;37380;45.186;9.792;2023-01-30T16:53:13;100982.91;;;2.28;100.00
51297;BME280;37380;45.186;9.792;2023-01-30T16:58:29;101051.72;;;2.53;100.00
51297;BME280;37380;45.186;9.792;2023-01-30T17:01:37;100794.81;;;0.97;100.00